createdAt,value
2023-03-27T00:00:02.892Z,0
2023-03-27T00:05:02.603Z,0
2023-03-27T00:10:02.651Z,0
2023-03-27T00:15:02.617Z,0
2023-03-27T00:20:03.359Z,0
2023-03-27T00:25:03.196Z,0
2023-03-27T00:30:02.944Z,0
2023-03-27T00:35:03.280Z,0
2023-03-27T00:40:02.714Z,0
2023-03-27T00:45:02.444Z,0
2023-03-27T00:50:02.525Z,0
2023-03-27T00:55:04.217Z,0
2023-03-27T01:00:03.271Z,0
2023-03-27T01:05:02.791Z,0
2023-03-27T01:10:02.796Z,0
2023-03-27T01:15:03.548Z,0
2023-03-27T01:20:03.002Z,0
2023-03-27T01:25:03.178Z,0
2023-03-27T01:30:02.956Z,0
2023-03-27T01:35:03.266Z,0
2023-03-27T01:40:02.514Z,0
2023-03-27T01:45:02.422Z,0
2023-03-27T01:50:03.124Z,0
2023-03-27T01:55:03.492Z,0
2023-03-27T02:00:19.759Z,0
2023-03-27T02:05:02.656Z,0
2023-03-27T02:10:02.483Z,0
2023-03-27T02:15:25.591Z,0
2023-03-27T02:20:02.699Z,0
2023-03-27T02:25:02.585Z,0
2023-03-27T02:30:02.528Z,0
2023-03-27T02:35:03.313Z,0
2023-03-27T02:40:03.349Z,0
2023-03-27T02:45:03.039Z,0
2023-03-27T02:50:02.904Z,0
2023-03-27T02:55:03.588Z,0
2023-03-27T03:00:03.404Z,0
2023-03-27T03:05:03.192Z,0
2023-03-27T03:10:03.133Z,0
2023-03-27T03:15:02.791Z,0
2023-03-27T03:20:02.631Z,0
2023-03-27T03:25:03.437Z,0
2023-03-27T03:30:03.196Z,0
2023-03-27T03:35:03.144Z,0
2023-03-27T03:40:02.946Z,0
2023-03-27T03:45:02.712Z,0
2023-03-27T03:50:03.309Z,0
2023-03-27T03:55:03.564Z,0
2023-03-27T04:00:03.002Z,0
2023-03-27T04:05:10.518Z,0
2023-03-27T04:10:02.536Z,0
2023-03-27T04:15:03.343Z,0
2023-03-27T04:20:02.525Z,0.11
2023-03-27T04:25:03.285Z,0.45
2023-03-27T04:30:03.073Z,1.58
2023-03-27T04:35:02.782Z,3.4
2023-03-27T04:40:02.679Z,7.36
2023-03-27T04:45:02.469Z,8.33
2023-03-27T04:50:03.108Z,26.67
2023-03-27T04:55:03.404Z,65
2023-03-27T05:00:02.654Z,101.67
2023-03-27T05:05:03.274Z,140
2023-03-27T05:10:03.067Z,213.33
2023-03-27T05:15:02.878Z,275
2023-03-27T05:20:02.762Z,311.67
2023-03-27T05:25:02.416Z,380
2023-03-27T05:30:03.148Z,391.67
2023-03-27T05:35:02.897Z,446.67
2023-03-27T05:40:03.124Z,611.67
2023-03-27T05:45:03.421Z,921.67
2023-03-27T05:50:02.869Z,958.33
2023-03-27T05:55:03.150Z,1383.33
2023-03-27T06:00:03.307Z,1551.67
2023-03-27T06:05:03.079Z,2185
2023-03-27T06:10:02.921Z,2448.33
2023-03-27T06:15:02.829Z,3016.67
2023-03-27T06:20:02.485Z,2038.33
2023-03-27T06:25:03.215Z,2220
2023-03-27T06:30:02.985Z,2653.33
2023-03-27T06:35:03.039Z,2886.67
2023-03-27T06:40:02.767Z,5281.67
2023-03-27T06:45:02.744Z,6015
2023-03-27T06:50:03.361Z,5818.33
2023-03-27T06:55:02.703Z,5845
2023-03-27T07:00:03.375Z,3245
2023-03-27T07:05:05.767Z,7470
2023-03-27T07:10:02.928Z,3533.33
2023-03-27T07:15:02.784Z,6503.33
2023-03-27T07:20:02.569Z,6476.67
2023-03-27T07:25:03.308Z,2703.33
2023-03-27T07:30:03.463Z,3618.33
2023-03-27T07:35:02.755Z,27306.25
2023-03-27T07:40:02.699Z,3470
2023-03-27T07:45:04.802Z,5308.33
2023-03-27T07:50:03.296Z,6296.67
2023-03-27T07:55:03.996Z,6226.67
2023-03-27T08:00:02.814Z,34696.67
2023-03-27T08:05:03.179Z,32750
2023-03-27T08:10:02.484Z,33540
2023-03-27T08:15:03.347Z,41763.33
2023-03-27T08:20:03.130Z,5550
2023-03-27T08:25:02.813Z,5198.33
2023-03-27T08:30:02.912Z,7291.67
2023-03-27T08:35:02.502Z,8071.67
2023-03-27T08:40:03.244Z,4816.67
2023-03-27T08:45:02.518Z,27306.25
2023-03-27T08:50:03.124Z,30290
2023-03-27T08:55:03.560Z,8955
2023-03-27T09:00:03.058Z,54612.5
2023-03-27T09:05:02.761Z,8298.33
2023-03-27T09:10:03.092Z,6745
2023-03-27T09:15:02.473Z,10496.67
2023-03-27T09:20:03.249Z,5621.67
2023-03-27T09:25:03.435Z,8021.67
2023-03-27T09:30:06.510Z,5266.67
2023-03-27T09:35:02.464Z,97487.66
2023-03-27T09:40:03.261Z,6691.67
2023-03-27T09:45:03.065Z,8961.67
2023-03-27T09:50:02.951Z,27593.33
2023-03-27T09:55:03.207Z,6603.33
2023-03-27T10:00:02.535Z,54612.5
2023-03-27T10:05:03.194Z,5958.33
2023-03-27T10:10:03.144Z,9716.67
2023-03-27T10:15:02.978Z,27306.25
2023-03-27T10:20:02.741Z,6486.67
2023-03-27T10:25:02.749Z,102506.33
2023-03-27T10:30:02.693Z,54612.5
2023-03-27T10:35:03.264Z,34346.67
2023-03-27T10:40:03.068Z,7715
2023-03-27T10:45:02.975Z,6753.33
2023-03-27T10:50:02.780Z,102366.17
2023-03-27T10:55:03.276Z,109048.75
2023-03-27T11:00:02.660Z,111384.69
2023-03-27T11:05:03.304Z,27306.25
2023-03-27T11:10:02.967Z,32406.67
2023-03-27T11:15:02.668Z,101545
2023-03-27T11:20:02.416Z,117758.2
2023-03-27T11:25:02.423Z,32950
2023-03-27T11:30:03.151Z,5398.33
2023-03-27T11:35:04.706Z,4766.67
2023-03-27T11:40:02.579Z,32246.67
2023-03-27T11:45:03.324Z,30210
2023-03-27T11:50:03.340Z,4646.67
2023-03-27T11:55:03.878Z,117758.2
2023-03-27T12:00:02.955Z,115627.11
2023-03-27T12:05:02.971Z,117758.2
2023-03-27T12:10:02.723Z,110288.59
2023-03-27T12:15:02.420Z,109237.42
2023-03-27T12:20:03.139Z,7085
2023-03-27T12:25:03.138Z,3456.67
2023-03-27T12:30:02.802Z,2931.67
2023-03-27T12:35:02.465Z,4868.33
2023-03-27T12:40:03.255Z,27306.25
2023-03-27T12:45:03.322Z,30383.33
2023-03-27T12:50:02.796Z,32596.67
2023-03-27T12:55:03.164Z,9291.67
2023-03-27T13:00:03.400Z,30700
2023-03-27T13:05:13.553Z,43406.67
2023-03-27T13:10:02.629Z,43236.67
2023-03-27T13:15:03.640Z,54612.5
2023-03-27T13:20:03.302Z,41753.33
2023-03-27T13:25:03.115Z,54612.5
2023-03-27T13:30:03.007Z,54612.5
2023-03-27T13:35:02.664Z,54612.5
2023-03-27T13:40:02.541Z,6368.33
2023-03-27T13:45:03.328Z,4570
2023-03-27T13:50:03.070Z,8591.67
2023-03-27T13:55:03.734Z,31850
2023-03-27T14:00:02.984Z,10785
2023-03-27T14:05:02.414Z,46933.33
2023-03-27T14:10:02.483Z,4990
2023-03-27T14:15:03.341Z,4566.67
2023-03-27T14:20:03.352Z,4546.67
2023-03-27T14:25:03.167Z,10763.33
2023-03-27T14:30:03.115Z,11150
2023-03-27T14:35:02.883Z,3785
2023-03-27T14:40:03.178Z,32086.67
2023-03-27T14:45:02.737Z,11931.67
2023-03-27T14:50:02.356Z,7788.33
2023-03-27T14:55:03.562Z,5880
2023-03-27T15:00:03.051Z,5790
2023-03-27T15:05:03.056Z,1861.67
2023-03-27T15:10:02.547Z,2248.33
2023-03-27T15:15:03.608Z,2766.67
2023-03-27T15:20:03.211Z,2213.33
2023-03-27T15:25:03.343Z,1696.67
2023-03-27T15:30:03.032Z,1826.67
2023-03-27T15:35:02.684Z,2878.33
2023-03-27T15:40:02.467Z,2913.33
2023-03-27T15:45:03.246Z,2628.33
2023-03-27T15:50:03.079Z,2328.33
2023-03-27T15:55:03.744Z,2370
2023-03-27T16:00:02.658Z,1478.33
2023-03-27T16:05:02.416Z,955
2023-03-27T16:10:03.299Z,988.33
2023-03-27T16:15:08.497Z,1591.67
2023-03-27T16:20:02.765Z,4535
2023-03-27T16:25:03.352Z,5118.33
2023-03-27T16:30:03.335Z,3371.67
2023-03-27T16:35:02.817Z,3501.67
2023-03-27T16:40:02.733Z,2110
2023-03-27T16:45:02.542Z,1548.33
2023-03-27T16:50:11.947Z,1431.67
2023-03-27T16:55:08.308Z,1613.33
2023-03-27T17:00:02.870Z,1426.67
2023-03-27T17:05:02.652Z,1220
2023-03-27T17:10:02.491Z,1133.33
2023-03-27T17:15:02.447Z,923.33
2023-03-27T17:20:06.636Z,400
2023-03-27T17:25:03.252Z,288.33
2023-03-27T17:30:03.331Z,191.67
2023-03-27T17:35:03.091Z,120
2023-03-27T17:40:03.339Z,66.67
2023-03-27T17:45:03.084Z,31.67
2023-03-27T17:50:05.376Z,13.33
2023-03-27T17:55:02.854Z,0.91
2023-03-27T18:00:06.448Z,0
2023-03-27T18:05:02.654Z,0
2023-03-27T18:10:03.146Z,0
2023-03-27T18:15:03.169Z,0
2023-03-27T18:20:02.947Z,0
2023-03-27T18:25:02.595Z,0
2023-03-27T18:30:02.472Z,0
2023-03-27T18:35:03.284Z,0
2023-03-27T18:40:03.168Z,0
2023-03-27T18:45:03.085Z,0
2023-03-27T18:50:02.932Z,0
2023-03-27T18:55:03.372Z,0
2023-03-27T19:00:02.713Z,0
2023-03-27T19:05:02.452Z,0
2023-03-27T19:10:02.372Z,0
2023-03-27T19:15:20.080Z,0
2023-03-27T19:20:03.332Z,0
2023-03-27T19:25:03.137Z,0
2023-03-27T19:30:02.854Z,0
2023-03-27T19:35:02.715Z,0
2023-03-27T19:40:03.284Z,0
2023-03-27T19:45:03.124Z,0
2023-03-27T19:50:02.743Z,0
2023-03-27T19:55:03.616Z,0
2023-03-27T20:00:03.345Z,0
2023-03-27T20:05:02.996Z,0
2023-03-27T20:10:03.202Z,0
2023-03-27T20:15:17.285Z,0
2023-03-27T20:20:03.218Z,0
2023-03-27T20:25:03.172Z,0
2023-03-27T20:30:02.905Z,0
2023-03-27T20:35:23.411Z,0
2023-03-27T20:40:02.849Z,0
2023-03-27T20:45:02.821Z,0
2023-03-27T20:50:02.519Z,0
2023-03-27T20:55:04.331Z,0
2023-03-27T21:00:03.068Z,0
2023-03-27T21:05:02.790Z,0
2023-03-27T21:10:02.601Z,0
2023-03-27T21:15:03.469Z,0
2023-03-27T21:20:03.177Z,0
2023-03-27T21:25:02.826Z,0
2023-03-27T21:30:02.798Z,0
2023-03-27T21:35:02.959Z,0
2023-03-27T21:40:02.660Z,0
2023-03-27T21:45:02.509Z,0
2023-03-27T21:50:03.488Z,0
2023-03-27T21:55:04.473Z,0
2023-03-27T22:00:02.971Z,0
2023-03-27T22:05:02.897Z,0
2023-03-27T22:10:02.410Z,0
2023-03-27T22:15:02.583Z,0
2023-03-27T22:20:03.296Z,0
2023-03-27T22:25:03.077Z,0
2023-03-27T22:30:03.323Z,0
2023-03-27T22:35:02.943Z,0
2023-03-27T22:40:02.703Z,0
2023-03-27T22:45:02.560Z,0
2023-03-27T22:50:03.273Z,0
2023-03-27T22:55:03.690Z,0
2023-03-27T23:00:02.723Z,0
2023-03-27T23:05:02.521Z,0
2023-03-27T23:10:03.235Z,0
2023-03-27T23:15:03.141Z,0
2023-03-27T23:20:02.793Z,0
2023-03-27T23:25:02.720Z,0
2023-03-27T23:30:02.440Z,0
2023-03-27T23:35:03.243Z,0
2023-03-27T23:40:03.265Z,0
2023-03-27T23:45:03.087Z,0
2023-03-27T23:50:02.686Z,0
2023-03-27T23:55:03.964Z,0
